sensor_id;sensor_type;location;lat;lon;timestamp;temperature;humidity
3562;DHT22;1795;52.074;4.754;2022-07-23T00:00:48;18.10;99.90
3562;DHT22;1795;52.074;4.754;2022-07-23T00:03:16;18.10;99.90
3562;DHT22;1795;52.074;4.754;2022-07-23T00:05:44;18.10;99.90
3562;DHT22;1795;52.074;4.754;2022-07-23T00:08:14;18.00;99.90
3562;DHT22;1795;52.074;4.754;2022-07-23T00:10:42;18.00;99.90
3562;DHT22;1795;52.074;4.754;2022-07-23T00:13:10;17.90;99.90
3562;DHT22;1795;52.074;4.754;2022-07-23T00:15:37;18.00;99.90
3562;DHT22;1795;52.074;4.754;2022-07-23T00:18:06;17.90;99.90
3562;DHT22;1795;52.074;4.754;2022-07-23T00:20:33;17.90;99.90
3562;DHT22;1795;52.074;4.754;2022-07-23T00:23:02;17.90;99.90
3562;DHT22;1795;52.074;4.754;2022-07-23T00:25:31;17.90;99.90
3562;DHT22;1795;52.074;4.754;2022-07-23T00:28:00;17.90;99.90
3562;DHT22;1795;52.074;4.754;2022-07-23T00:30:29;17.80;99.90
3562;DHT22;1795;52.074;4.754;2022-07-23T00:33:00;17.80;99.90
3562;DHT22;1795;52.074;4.754;2022-07-23T00:35:32;17.80;99.90
3562;DHT22;1795;52.074;4.754;2022-07-23T00:38:01;17.80;99.90
3562;DHT22;1795;52.074;4.754;2022-07-23T00:40:31;17.70;99.90
3562;DHT22;1795;52.074;4.754;2022-07-23T00:42:59;17.70;99.90
3562;DHT22;1795;52.074;4.754;2022-07-23T00:45:27;17.70;99.90
3562;DHT22;1795;52.074;4.754;2022-07-23T00:47:56;17.70;99.90
3562;DHT22;1795;52.074;4.754;2022-07-23T00:50:24;17.60;99.90
3562;DHT22;1795;52.074;4.754;2022-07-23T00:52:53;17.60;99.90
3562;DHT22;1795;52.074;4.754;2022-07-23T00:55:21;17.60;99.90
3562;DHT22;1795;52.074;4.754;2022-07-23T00:57:50;17.60;99.90
3562;DHT22;1795;52.074;4.754;2022-07-23T01:00:19;17.60;99.90
3562;DHT22;1795;52.074;4.754;2022-07-23T01:02:47;17.50;99.90
3562;DHT22;1795;52.074;4.754;2022-07-23T01:05:16;17.50;99.90
3562;DHT22;1795;52.074;4.754;2022-07-23T01:07:49;17.50;99.90
3562;DHT22;1795;52.074;4.754;2022-07-23T01:10:22;17.50;99.90
3562;DHT22;1795;52.074;4.754;2022-07-23T01:13:04;17.50;99.90
3562;DHT22;1795;52.074;4.754;2022-07-23T01:15:32;17.40;99.90
3562;DHT22;1795;52.074;4.754;2022-07-23T01:18:01;17.40;99.90
3562;DHT22;1795;52.074;4.754;2022-07-23T01:20:30;17.40;99.90
3562;DHT22;1795;52.074;4.754;2022-07-23T01:22:59;17.40;99.90
3562;DHT22;1795;52.074;4.754;2022-07-23T01:25:27;17.30;99.90
3562;DHT22;1795;52.074;4.754;2022-07-23T01:27:55;17.30;99.90
3562;DHT22;1795;52.074;4.754;2022-07-23T01:30:23;17.30;99.90
3562;DHT22;1795;52.074;4.754;2022-07-23T01:32:51;17.30;99.90
3562;DHT22;1795;52.074;4.754;2022-07-23T01:35:19;17.30;99.90
3562;DHT22;1795;52.074;4.754;2022-07-23T01:37:47;17.20;99.90
3562;DHT22;1795;52.074;4.754;2022-07-23T01:40:17;17.20;99.90
3562;DHT22;1795;52.074;4.754;2022-07-23T01:42:46;17.20;99.90
3562;DHT22;1795;52.074;4.754;2022-07-23T01:45:14;17.20;99.90
3562;DHT22;1795;52.074;4.754;2022-07-23T01:47:42;17.20;99.90
3562;DHT22;1795;52.074;4.754;2022-07-23T01:50:10;17.10;99.90
3562;DHT22;1795;52.074;4.754;2022-07-23T01:52:38;17.10;99.90
3562;DHT22;1795;52.074;4.754;2022-07-23T01:55:08;17.10;99.90
3562;DHT22;1795;52.074;4.754;2022-07-23T01:57:45;17.00;99.90
3562;DHT22;1795;52.074;4.754;2022-07-23T02:00:14;17.10;99.90
3562;DHT22;1795;52.074;4.754;2022-07-23T02:02:42;17.00;99.90
3562;DHT22;1795;52.074;4.754;2022-07-23T02:05:10;17.00;99.90
3562;DHT22;1795;52.074;4.754;2022-07-23T02:07:38;17.00;99.90
3562;DHT22;1795;52.074;4.754;2022-07-23T02:10:07;16.90;99.90
3562;DHT22;1795;52.074;4.754;2022-07-23T02:12:35;17.00;99.90
3562;DHT22;1795;52.074;4.754;2022-07-23T02:15:06;16.90;99.90
3562;DHT22;1795;52.074;4.754;2022-07-23T02:17:36;16.90;99.90
3562;DHT22;1795;52.074;4.754;2022-07-23T02:20:05;16.90;99.90
3562;DHT22;1795;52.074;4.754;2022-07-23T02:22:34;16.90;99.90
3562;DHT22;1795;52.074;4.754;2022-07-23T02:25:02;16.80;99.90
3562;DHT22;1795;52.074;4.754;2022-07-23T02:27:31;16.80;99.90
3562;DHT22;1795;52.074;4.754;2022-07-23T02:29:59;16.80;99.90
3562;DHT22;1795;52.074;4.754;2022-07-23T02:32:28;16.80;99.90
3562;DHT22;1795;52.074;4.754;2022-07-23T02:34:56;16.80;99.90
3562;DHT22;1795;52.074;4.754;2022-07-23T02:37:24;16.80;99.90
3562;DHT22;1795;52.074;4.754;2022-07-23T02:39:53;16.70;99.90
3562;DHT22;1795;52.074;4.754;2022-07-23T02:42:21;16.70;99.90
3562;DHT22;1795;52.074;4.754;2022-07-23T02:44:50;16.70;99.90
3562;DHT22;1795;52.074;4.754;2022-07-23T02:47:18;16.70;99.90
3562;DHT22;1795;52.074;4.754;2022-07-23T02:49:47;16.70;99.90
3562;DHT22;1795;52.074;4.754;2022-07-23T02:52:15;16.60;99.90
3562;DHT22;1795;52.074;4.754;2022-07-23T02:54:43;16.60;99.90
3562;DHT22;1795;52.074;4.754;2022-07-23T02:57:11;16.60;99.90
3562;DHT22;1795;52.074;4.754;2022-07-23T02:59:39;16.60;99.90
3562;DHT22;1795;52.074;4.754;2022-07-23T03:02:07;16.60;99.90
3562;DHT22;1795;52.074;4.754;2022-07-23T03:04:35;16.50;99.90
3562;DHT22;1795;52.074;4.754;2022-07-23T03:07:05;16.50;99.90
3562;DHT22;1795;52.074;4.754;2022-07-23T03:09:33;16.60;99.90
3562;DHT22;1795;52.074;4.754;2022-07-23T03:12:01;16.60;99.90
3562;DHT22;1795;52.074;4.754;2022-07-23T03:14:29;16.50;99.90
3562;DHT22;1795;52.074;4.754;2022-07-23T03:16:57;16.50;99.90
3562;DHT22;1795;52.074;4.754;2022-07-23T03:19:26;16.50;99.90
3562;DHT22;1795;52.074;4.754;2022-07-23T03:21:54;16.50;99.90
3562;DHT22;1795;52.074;4.754;2022-07-23T03:24:23;16.50;99.90
3562;DHT22;1795;52.074;4.754;2022-07-23T03:27:11;16.50;99.90
3562;DHT22;1795;52.074;4.754;2022-07-23T03:29:39;16.50;99.90
3562;DHT22;1795;52.074;4.754;2022-07-23T03:32:07;16.40;99.90
3562;DHT22;1795;52.074;4.754;2022-07-23T03:34:36;16.40;99.90
3562;DHT22;1795;52.074;4.754;2022-07-23T03:37:05;16.40;99.90
3562;DHT22;1795;52.074;4.754;2022-07-23T03:39:35;16.40;99.90
3562;DHT22;1795;52.074;4.754;2022-07-23T03:42:03;16.40;99.90
3562;DHT22;1795;52.074;4.754;2022-07-23T03:44:31;16.40;99.90
3562;DHT22;1795;52.074;4.754;2022-07-23T03:46:59;16.40;99.90
3562;DHT22;1795;52.074;4.754;2022-07-23T03:49:28;16.40;99.90
3562;DHT22;1795;52.074;4.754;2022-07-23T03:51:57;16.40;99.90
3562;DHT22;1795;52.074;4.754;2022-07-23T03:54:25;16.40;99.90
3562;DHT22;1795;52.074;4.754;2022-07-23T03:56:54;16.40;99.90
3562;DHT22;1795;52.074;4.754;2022-07-23T03:59:22;16.40;99.90
3562;DHT22;1795;52.074;4.754;2022-07-23T04:01:50;16.30;99.90
3562;DHT22;1795;52.074;4.754;2022-07-23T04:04:18;16.30;99.90
3562;DHT22;1795;52.074;4.754;2022-07-23T04:06:46;16.30;99.90
3562;DHT22;1795;52.074;4.754;2022-07-23T04:09:14;16.30;99.90
3562;DHT22;1795;52.074;4.754;2022-07-23T04:11:42;16.20;99.90
3562;DHT22;1795;52.074;4.754;2022-07-23T04:14:11;16.20;99.90
3562;DHT22;1795;52.074;4.754;2022-07-23T04:16:39;16.20;99.90
3562;DHT22;1795;52.074;4.754;2022-07-23T04:19:07;16.20;99.90
3562;DHT22;1795;52.074;4.754;2022-07-23T04:21:35;16.20;99.90
3562;DHT22;1795;52.074;4.754;2022-07-23T04:24:04;16.20;99.90
3562;DHT22;1795;52.074;4.754;2022-07-23T04:26:32;16.20;99.90
3562;DHT22;1795;52.074;4.754;2022-07-23T04:29:00;16.20;99.90
3562;DHT22;1795;52.074;4.754;2022-07-23T04:31:30;16.20;99.90
3562;DHT22;1795;52.074;4.754;2022-07-23T04:34:03;16.20;99.90
3562;DHT22;1795;52.074;4.754;2022-07-23T04:36:31;16.10;99.90
3562;DHT22;1795;52.074;4.754;2022-07-23T04:38:59;16.10;99.90
3562;DHT22;1795;52.074;4.754;2022-07-23T04:41:28;16.10;99.90
3562;DHT22;1795;52.074;4.754;2022-07-23T04:43:56;16.10;99.90
3562;DHT22;1795;52.074;4.754;2022-07-23T04:46:24;16.10;99.90
3562;DHT22;1795;52.074;4.754;2022-07-23T04:48:53;16.10;99.90
3562;DHT22;1795;52.074;4.754;2022-07-23T04:51:22;16.10;99.90
3562;DHT22;1795;52.074;4.754;2022-07-23T04:53:50;16.10;99.90
3562;DHT22;1795;52.074;4.754;2022-07-23T04:56:18;16.10;99.90
3562;DHT22;1795;52.074;4.754;2022-07-23T04:58:45;16.10;99.90
3562;DHT22;1795;52.074;4.754;2022-07-23T05:01:13;16.10;99.90
3562;DHT22;1795;52.074;4.754;2022-07-23T05:03:42;16.10;99.90
3562;DHT22;1795;52.074;4.754;2022-07-23T05:06:11;16.10;99.90
3562;DHT22;1795;52.074;4.754;2022-07-23T05:08:39;16.20;99.90
3562;DHT22;1795;52.074;4.754;2022-07-23T05:11:07;16.20;99.90
3562;DHT22;1795;52.074;4.754;2022-07-23T05:13:34;16.20;99.90
3562;DHT22;1795;52.074;4.754;2022-07-23T05:16:03;16.20;99.90
3562;DHT22;1795;52.074;4.754;2022-07-23T05:18:31;16.20;99.90
3562;DHT22;1795;52.074;4.754;2022-07-23T05:20:59;16.20;99.90
3562;DHT22;1795;52.074;4.754;2022-07-23T05:23:28;16.20;99.90
3562;DHT22;1795;52.074;4.754;2022-07-23T05:25:56;16.20;99.90
3562;DHT22;1795;52.074;4.754;2022-07-23T05:28:24;16.20;99.90
3562;DHT22;1795;52.074;4.754;2022-07-23T05:30:52;16.30;99.90
3562;DHT22;1795;52.074;4.754;2022-07-23T05:33:20;16.30;99.90
3562;DHT22;1795;52.074;4.754;2022-07-23T05:35:48;16.30;99.90
3562;DHT22;1795;52.074;4.754;2022-07-23T05:38:16;16.30;99.90
3562;DHT22;1795;52.074;4.754;2022-07-23T05:40:45;16.30;99.90
3562;DHT22;1795;52.074;4.754;2022-07-23T05:43:13;16.30;99.90
3562;DHT22;1795;52.074;4.754;2022-07-23T05:45:41;16.30;99.90
3562;DHT22;1795;52.074;4.754;2022-07-23T05:48:09;16.30;99.90
3562;DHT22;1795;52.074;4.754;2022-07-23T05:50:37;16.40;99.90
3562;DHT22;1795;52.074;4.754;2022-07-23T05:53:05;16.40;99.90
3562;DHT22;1795;52.074;4.754;2022-07-23T05:55:33;16.40;99.90
3562;DHT22;1795;52.074;4.754;2022-07-23T05:58:02;16.40;99.90
3562;DHT22;1795;52.074;4.754;2022-07-23T06:00:31;16.40;99.90
3562;DHT22;1795;52.074;4.754;2022-07-23T06:02:59;16.50;99.90
3562;DHT22;1795;52.074;4.754;2022-07-23T06:05:27;16.50;99.90
3562;DHT22;1795;52.074;4.754;2022-07-23T06:07:55;16.60;99.90
3562;DHT22;1795;52.074;4.754;2022-07-23T06:10:23;16.70;99.90
3562;DHT22;1795;52.074;4.754;2022-07-23T06:12:51;16.80;99.90
3562;DHT22;1795;52.074;4.754;2022-07-23T06:15:28;16.80;99.90
3562;DHT22;1795;52.074;4.754;2022-07-23T06:17:57;16.90;99.90
3562;DHT22;1795;52.074;4.754;2022-07-23T06:20:25;17.00;99.90
3562;DHT22;1795;52.074;4.754;2022-07-23T06:22:53;17.10;99.90
3562;DHT22;1795;52.074;4.754;2022-07-23T06:25:21;17.10;99.90
3562;DHT22;1795;52.074;4.754;2022-07-23T06:27:49;17.20;99.90
3562;DHT22;1795;52.074;4.754;2022-07-23T06:30:17;17.40;99.90
3562;DHT22;1795;52.074;4.754;2022-07-23T06:32:47;17.40;99.90
3562;DHT22;1795;52.074;4.754;2022-07-23T06:35:16;17.50;99.90
3562;DHT22;1795;52.074;4.754;2022-07-23T06:37:44;17.60;99.90
3562;DHT22;1795;52.074;4.754;2022-07-23T06:40:14;17.70;99.90
3562;DHT22;1795;52.074;4.754;2022-07-23T06:42:42;17.80;99.90
3562;DHT22;1795;52.074;4.754;2022-07-23T06:45:10;17.80;99.90
3562;DHT22;1795;52.074;4.754;2022-07-23T06:47:38;17.90;99.90
3562;DHT22;1795;52.074;4.754;2022-07-23T06:50:10;18.10;99.90
3562;DHT22;1795;52.074;4.754;2022-07-23T06:52:38;18.10;99.90
3562;DHT22;1795;52.074;4.754;2022-07-23T06:55:09;18.20;99.90
3562;DHT22;1795;52.074;4.754;2022-07-23T06:57:37;18.40;99.90
3562;DHT22;1795;52.074;4.754;2022-07-23T07:00:06;18.50;99.90
3562;DHT22;1795;52.074;4.754;2022-07-23T07:02:34;18.60;99.90
3562;DHT22;1795;52.074;4.754;2022-07-23T07:05:03;18.70;99.90
3562;DHT22;1795;52.074;4.754;2022-07-23T07:07:33;18.80;99.90
3562;DHT22;1795;52.074;4.754;2022-07-23T07:10:02;18.90;99.90
3562;DHT22;1795;52.074;4.754;2022-07-23T07:12:31;19.00;99.90
3562;DHT22;1795;52.074;4.754;2022-07-23T07:14:59;19.10;99.90
3562;DHT22;1795;52.074;4.754;2022-07-23T07:17:27;19.20;99.90
3562;DHT22;1795;52.074;4.754;2022-07-23T07:19:55;19.30;99.90
3562;DHT22;1795;52.074;4.754;2022-07-23T07:22:23;19.30;99.90
3562;DHT22;1795;52.074;4.754;2022-07-23T07:24:52;19.40;99.90
3562;DHT22;1795;52.074;4.754;2022-07-23T07:27:20;19.40;99.90
3562;DHT22;1795;52.074;4.754;2022-07-23T07:29:48;19.40;99.90
3562;DHT22;1795;52.074;4.754;2022-07-23T07:32:16;19.40;99.90
3562;DHT22;1795;52.074;4.754;2022-07-23T07:35:04;19.40;99.90
3562;DHT22;1795;52.074;4.754;2022-07-23T07:37:33;19.30;99.90
3562;DHT22;1795;52.074;4.754;2022-07-23T07:40:02;19.30;99.90
3562;DHT22;1795;52.074;4.754;2022-07-23T07:42:30;19.30;99.90
3562;DHT22;1795;52.074;4.754;2022-07-23T07:44:58;19.40;99.90
3562;DHT22;1795;52.074;4.754;2022-07-23T07:47:27;19.40;99.90
3562;DHT22;1795;52.074;4.754;2022-07-23T07:49:54;19.50;99.90
3562;DHT22;1795;52.074;4.754;2022-07-23T07:52:22;19.50;99.90
3562;DHT22;1795;52.074;4.754;2022-07-23T07:54:50;19.50;99.90
3562;DHT22;1795;52.074;4.754;2022-07-23T07:57:20;19.60;99.90
3562;DHT22;1795;52.074;4.754;2022-07-23T07:59:48;19.60;99.90
3562;DHT22;1795;52.074;4.754;2022-07-23T08:02:22;19.70;99.90
3562;DHT22;1795;52.074;4.754;2022-07-23T08:04:50;19.70;99.90
3562;DHT22;1795;52.074;4.754;2022-07-23T08:07:18;19.80;99.90
3562;DHT22;1795;52.074;4.754;2022-07-23T08:09:47;19.90;99.90
3562;DHT22;1795;52.074;4.754;2022-07-23T08:12:15;19.90;99.90
3562;DHT22;1795;52.074;4.754;2022-07-23T08:14:44;20.00;99.90
3562;DHT22;1795;52.074;4.754;2022-07-23T08:17:12;20.00;99.90
3562;DHT22;1795;52.074;4.754;2022-07-23T08:19:41;20.10;99.90
3562;DHT22;1795;52.074;4.754;2022-07-23T08:22:09;20.10;99.90
3562;DHT22;1795;52.074;4.754;2022-07-23T08:24:37;20.20;99.90
3562;DHT22;1795;52.074;4.754;2022-07-23T08:27:05;20.20;99.90
3562;DHT22;1795;52.074;4.754;2022-07-23T08:29:33;20.30;99.90
3562;DHT22;1795;52.074;4.754;2022-07-23T08:32:03;20.30;99.90
3562;DHT22;1795;52.074;4.754;2022-07-23T08:34:51;20.40;99.90
3562;DHT22;1795;52.074;4.754;2022-07-23T08:37:19;20.40;99.90
3562;DHT22;1795;52.074;4.754;2022-07-23T08:39:47;20.50;99.90
3562;DHT22;1795;52.074;4.754;2022-07-23T08:42:15;20.50;99.90
3562;DHT22;1795;52.074;4.754;2022-07-23T08:44:45;20.60;99.90
3562;DHT22;1795;52.074;4.754;2022-07-23T08:47:14;20.60;99.90
3562;DHT22;1795;52.074;4.754;2022-07-23T08:49:44;20.70;99.90
3562;DHT22;1795;52.074;4.754;2022-07-23T08:52:14;20.70;99.90
3562;DHT22;1795;52.074;4.754;2022-07-23T08:54:42;20.80;99.90
3562;DHT22;1795;52.074;4.754;2022-07-23T08:57:10;20.90;99.90
3562;DHT22;1795;52.074;4.754;2022-07-23T08:59:38;20.90;99.90
3562;DHT22;1795;52.074;4.754;2022-07-23T09:02:06;21.00;99.90
3562;DHT22;1795;52.074;4.754;2022-07-23T09:04:36;21.00;99.90
3562;DHT22;1795;52.074;4.754;2022-07-23T09:07:04;21.10;99.90
3562;DHT22;1795;52.074;4.754;2022-07-23T09:09:32;21.10;99.90
3562;DHT22;1795;52.074;4.754;2022-07-23T09:12:04;21.20;99.90
3562;DHT22;1795;52.074;4.754;2022-07-23T09:14:37;21.30;99.90
3562;DHT22;1795;52.074;4.754;2022-07-23T09:17:12;21.30;99.90
3562;DHT22;1795;52.074;4.754;2022-07-23T09:19:42;21.40;99.90
3562;DHT22;1795;52.074;4.754;2022-07-23T09:22:20;21.50;99.90
3562;DHT22;1795;52.074;4.754;2022-07-23T09:25:08;21.50;99.90
3562;DHT22;1795;52.074;4.754;2022-07-23T09:27:50;21.60;99.90
3562;DHT22;1795;52.074;4.754;2022-07-23T09:30:22;21.70;99.90
3562;DHT22;1795;52.074;4.754;2022-07-23T09:33:09;21.80;99.90
3562;DHT22;1795;52.074;4.754;2022-07-23T09:35:46;21.90;99.90
3562;DHT22;1795;52.074;4.754;2022-07-23T09:38:15;21.90;99.90
3562;DHT22;1795;52.074;4.754;2022-07-23T09:40:44;22.00;99.90
3562;DHT22;1795;52.074;4.754;2022-07-23T09:43:12;22.10;99.90
3562;DHT22;1795;52.074;4.754;2022-07-23T09:46:16;22.10;99.90
3562;DHT22;1795;52.074;4.754;2022-07-23T09:48:44;22.20;99.90
3562;DHT22;1795;52.074;4.754;2022-07-23T09:51:14;22.30;99.90
3562;DHT22;1795;52.074;4.754;2022-07-23T09:53:43;22.30;99.90
3562;DHT22;1795;52.074;4.754;2022-07-23T09:56:13;22.40;99.90
3562;DHT22;1795;52.074;4.754;2022-07-23T09:58:43;22.50;99.90
3562;DHT22;1795;52.074;4.754;2022-07-23T10:01:14;22.60;99.90
3562;DHT22;1795;52.074;4.754;2022-07-23T10:03:42;22.60;99.90
3562;DHT22;1795;52.074;4.754;2022-07-23T10:06:12;22.70;99.90
3562;DHT22;1795;52.074;4.754;2022-07-23T10:08:44;22.70;99.90
3562;DHT22;1795;52.074;4.754;2022-07-23T10:11:14;22.80;99.90
3562;DHT22;1795;52.074;4.754;2022-07-23T10:13:43;22.90;99.90
3562;DHT22;1795;52.074;4.754;2022-07-23T10:16:21;23.00;99.90
3562;DHT22;1795;52.074;4.754;2022-07-23T10:18:53;23.10;99.90
3562;DHT22;1795;52.074;4.754;2022-07-23T10:21:27;23.20;99.90
3562;DHT22;1795;52.074;4.754;2022-07-23T10:24:08;23.20;99.90
3562;DHT22;1795;52.074;4.754;2022-07-23T10:26:44;23.30;99.90
3562;DHT22;1795;52.074;4.754;2022-07-23T10:29:23;23.40;99.90
3562;DHT22;1795;52.074;4.754;2022-07-23T10:32:00;23.50;99.90
3562;DHT22;1795;52.074;4.754;2022-07-23T10:34:38;23.60;99.90
3562;DHT22;1795;52.074;4.754;2022-07-23T10:37:12;23.70;99.90
3562;DHT22;1795;52.074;4.754;2022-07-23T10:40:08;23.70;99.90
3562;DHT22;1795;52.074;4.754;2022-07-23T10:42:37;23.80;99.90
3562;DHT22;1795;52.074;4.754;2022-07-23T10:45:29;23.90;99.90
3562;DHT22;1795;52.074;4.754;2022-07-23T10:48:15;24.00;99.90
3562;DHT22;1795;52.074;4.754;2022-07-23T10:51:08;24.10;99.90
3562;DHT22;1795;52.074;4.754;2022-07-23T10:53:56;24.20;99.90
3562;DHT22;1795;52.074;4.754;2022-07-23T10:57:04;24.30;99.90
3562;DHT22;1795;52.074;4.754;2022-07-23T11:02:36;24.40;99.90
3562;DHT22;1795;52.074;4.754;2022-07-23T11:05:07;24.50;99.90
3562;DHT22;1795;52.074;4.754;2022-07-23T11:07:36;24.60;99.90
3562;DHT22;1795;52.074;4.754;2022-07-23T11:10:05;24.60;99.90
3562;DHT22;1795;52.074;4.754;2022-07-23T11:12:35;24.70;99.90
3562;DHT22;1795;52.074;4.754;2022-07-23T11:15:06;24.80;99.90
3562;DHT22;1795;52.074;4.754;2022-07-23T11:17:36;24.80;99.90
3562;DHT22;1795;52.074;4.754;2022-07-23T11:20:17;24.90;99.90
3562;DHT22;1795;52.074;4.754;2022-07-23T11:22:56;24.90;99.90
3562;DHT22;1795;52.074;4.754;2022-07-23T11:25:35;25.00;99.90
3562;DHT22;1795;52.074;4.754;2022-07-23T11:28:14;25.10;99.90
3562;DHT22;1795;52.074;4.754;2022-07-23T11:30:44;25.10;99.90
3562;DHT22;1795;52.074;4.754;2022-07-23T11:33:17;25.20;99.90
3562;DHT22;1795;52.074;4.754;2022-07-23T11:35:46;25.30;99.90
3562;DHT22;1795;52.074;4.754;2022-07-23T11:38:17;25.40;99.90
3562;DHT22;1795;52.074;4.754;2022-07-23T11:40:49;25.40;99.90
3562;DHT22;1795;52.074;4.754;2022-07-23T11:43:19;25.50;99.90
3562;DHT22;1795;52.074;4.754;2022-07-23T11:45:48;25.60;99.90
3562;DHT22;1795;52.074;4.754;2022-07-23T11:48:19;25.60;99.90
3562;DHT22;1795;52.074;4.754;2022-07-23T11:50:47;25.70;99.90
3562;DHT22;1795;52.074;4.754;2022-07-23T11:53:21;25.70;99.90
3562;DHT22;1795;52.074;4.754;2022-07-23T11:55:50;25.80;99.90
3562;DHT22;1795;52.074;4.754;2022-07-23T11:58:20;25.90;99.60
3562;DHT22;1795;52.074;4.754;2022-07-23T12:00:49;25.90;99.80
3562;DHT22;1795;52.074;4.754;2022-07-23T12:03:17;26.00;99.20
3562;DHT22;1795;52.074;4.754;2022-07-23T12:05:45;26.00;99.50
3562;DHT22;1795;52.074;4.754;2022-07-23T12:08:13;26.10;99.10
3562;DHT22;1795;52.074;4.754;2022-07-23T12:10:43;26.20;98.70
3562;DHT22;1795;52.074;4.754;2022-07-23T12:13:13;26.30;99.30
3562;DHT22;1795;52.074;4.754;2022-07-23T12:15:44;26.30;98.40
3562;DHT22;1795;52.074;4.754;2022-07-23T12:18:14;26.30;98.90
3562;DHT22;1795;52.074;4.754;2022-07-23T12:20:45;26.40;98.30
3562;DHT22;1795;52.074;4.754;2022-07-23T12:23:15;26.50;98.70
3562;DHT22;1795;52.074;4.754;2022-07-23T12:25:48;26.50;97.90
3562;DHT22;1795;52.074;4.754;2022-07-23T12:28:17;26.50;98.30
3562;DHT22;1795;52.074;4.754;2022-07-23T12:30:49;26.60;97.90
3562;DHT22;1795;52.074;4.754;2022-07-23T12:33:22;26.70;98.00
3562;DHT22;1795;52.074;4.754;2022-07-23T12:35:53;26.80;98.20
3562;DHT22;1795;52.074;4.754;2022-07-23T12:38:23;26.80;97.20
3562;DHT22;1795;52.074;4.754;2022-07-23T12:40:52;26.90;97.70
3562;DHT22;1795;52.074;4.754;2022-07-23T12:43:23;26.90;97.70
3562;DHT22;1795;52.074;4.754;2022-07-23T12:45:54;27.00;98.20
3562;DHT22;1795;52.074;4.754;2022-07-23T12:48:24;27.10;98.40
3562;DHT22;1795;52.074;4.754;2022-07-23T12:50:55;27.20;97.90
3562;DHT22;1795;52.074;4.754;2022-07-23T12:53:26;27.20;97.50
3562;DHT22;1795;52.074;4.754;2022-07-23T12:56:04;27.30;97.30
3562;DHT22;1795;52.074;4.754;2022-07-23T12:58:46;27.40;97.80
3562;DHT22;1795;52.074;4.754;2022-07-23T13:01:28;27.50;97.80
3562;DHT22;1795;52.074;4.754;2022-07-23T13:04:00;27.50;97.80
3562;DHT22;1795;52.074;4.754;2022-07-23T13:06:32;27.60;97.10
3562;DHT22;1795;52.074;4.754;2022-07-23T13:09:01;27.70;96.60
3562;DHT22;1795;52.074;4.754;2022-07-23T13:11:31;27.70;96.50
3562;DHT22;1795;52.074;4.754;2022-07-23T13:14:00;27.80;96.70
3562;DHT22;1795;52.074;4.754;2022-07-23T13:16:31;27.80;95.90
3562;DHT22;1795;52.074;4.754;2022-07-23T13:19:00;27.90;95.80
3562;DHT22;1795;52.074;4.754;2022-07-23T13:21:29;27.90;96.00
3562;DHT22;1795;52.074;4.754;2022-07-23T13:23:57;28.00;96.40
3562;DHT22;1795;52.074;4.754;2022-07-23T13:26:26;28.00;95.60
3562;DHT22;1795;52.074;4.754;2022-07-23T13:28:54;28.10;95.60
3562;DHT22;1795;52.074;4.754;2022-07-23T13:31:22;28.10;95.90
3562;DHT22;1795;52.074;4.754;2022-07-23T13:33:51;28.20;95.80
3562;DHT22;1795;52.074;4.754;2022-07-23T13:36:19;28.20;95.20
3562;DHT22;1795;52.074;4.754;2022-07-23T13:38:47;28.30;95.10
3562;DHT22;1795;52.074;4.754;2022-07-23T13:41:16;28.30;95.70
3562;DHT22;1795;52.074;4.754;2022-07-23T13:43:45;28.30;95.40
3562;DHT22;1795;52.074;4.754;2022-07-23T13:46:13;28.40;95.70
3562;DHT22;1795;52.074;4.754;2022-07-23T13:48:41;28.50;95.30
3562;DHT22;1795;52.074;4.754;2022-07-23T13:51:11;28.50;95.20
3562;DHT22;1795;52.074;4.754;2022-07-23T13:53:39;28.60;95.20
3562;DHT22;1795;52.074;4.754;2022-07-23T13:56:08;28.60;94.80
3562;DHT22;1795;52.074;4.754;2022-07-23T13:58:36;28.60;94.80
3562;DHT22;1795;52.074;4.754;2022-07-23T14:01:05;28.70;94.80
3562;DHT22;1795;52.074;4.754;2022-07-23T14:03:33;28.80;94.10
3562;DHT22;1795;52.074;4.754;2022-07-23T14:06:01;28.90;93.90
3562;DHT22;1795;52.074;4.754;2022-07-23T14:08:30;28.90;93.70
3562;DHT22;1795;52.074;4.754;2022-07-23T14:10:58;29.00;94.10
3562;DHT22;1795;52.074;4.754;2022-07-23T14:13:33;29.00;93.80
3562;DHT22;1795;52.074;4.754;2022-07-23T14:16:02;29.00;94.10
3562;DHT22;1795;52.074;4.754;2022-07-23T14:18:30;29.10;93.50
3562;DHT22;1795;52.074;4.754;2022-07-23T14:20:59;29.10;93.70
3562;DHT22;1795;52.074;4.754;2022-07-23T14:23:28;29.10;94.00
3562;DHT22;1795;52.074;4.754;2022-07-23T14:25:57;29.20;94.40
3562;DHT22;1795;52.074;4.754;2022-07-23T14:28:26;29.20;93.90
3562;DHT22;1795;52.074;4.754;2022-07-23T14:30:54;29.30;94.40
3562;DHT22;1795;52.074;4.754;2022-07-23T14:33:22;29.30;93.60
3562;DHT22;1795;52.074;4.754;2022-07-23T14:35:52;29.30;93.90
3562;DHT22;1795;52.074;4.754;2022-07-23T14:38:20;29.40;94.00
3562;DHT22;1795;52.074;4.754;2022-07-23T14:40:48;29.40;93.90
3562;DHT22;1795;52.074;4.754;2022-07-23T14:43:17;29.50;94.00
3562;DHT22;1795;52.074;4.754;2022-07-23T14:45:45;29.50;93.90
3562;DHT22;1795;52.074;4.754;2022-07-23T14:48:15;29.60;93.30
3562;DHT22;1795;52.074;4.754;2022-07-23T14:50:43;29.60;93.10
3562;DHT22;1795;52.074;4.754;2022-07-23T14:53:11;29.50;92.80
3562;DHT22;1795;52.074;4.754;2022-07-23T14:55:39;29.50;92.10
3562;DHT22;1795;52.074;4.754;2022-07-23T14:58:07;29.50;92.70
3562;DHT22;1795;52.074;4.754;2022-07-23T15:00:37;29.50;92.50
3562;DHT22;1795;52.074;4.754;2022-07-23T15:03:05;29.50;92.80
3562;DHT22;1795;52.074;4.754;2022-07-23T15:05:34;29.60;93.10
3562;DHT22;1795;52.074;4.754;2022-07-23T15:08:03;29.70;92.70
3562;DHT22;1795;52.074;4.754;2022-07-23T15:10:35;29.70;92.50
3562;DHT22;1795;52.074;4.754;2022-07-23T15:13:03;29.70;91.90
3562;DHT22;1795;52.074;4.754;2022-07-23T15:15:34;29.80;92.20
3562;DHT22;1795;52.074;4.754;2022-07-23T15:18:04;29.80;92.00
3562;DHT22;1795;52.074;4.754;2022-07-23T15:20:32;29.80;92.00
3562;DHT22;1795;52.074;4.754;2022-07-23T15:23:06;29.80;92.50
3562;DHT22;1795;52.074;4.754;2022-07-23T15:25:36;29.90;92.50
3562;DHT22;1795;52.074;4.754;2022-07-23T15:28:04;30.00;92.90
3562;DHT22;1795;52.074;4.754;2022-07-23T15:30:34;30.00;93.20
3562;DHT22;1795;52.074;4.754;2022-07-23T15:33:05;30.10;92.40
3562;DHT22;1795;52.074;4.754;2022-07-23T15:35:45;30.10;92.80
3562;DHT22;1795;52.074;4.754;2022-07-23T15:38:13;30.20;92.90
3562;DHT22;1795;52.074;4.754;2022-07-23T15:41:01;30.20;93.30
3562;DHT22;1795;52.074;4.754;2022-07-23T15:43:29;30.30;93.70
3562;DHT22;1795;52.074;4.754;2022-07-23T15:45:57;30.30;93.30
3562;DHT22;1795;52.074;4.754;2022-07-23T15:48:27;30.30;93.60
3562;DHT22;1795;52.074;4.754;2022-07-23T15:50:56;30.40;93.30
3562;DHT22;1795;52.074;4.754;2022-07-23T15:53:25;30.50;93.60
3562;DHT22;1795;52.074;4.754;2022-07-23T15:56:04;30.50;93.70
3562;DHT22;1795;52.074;4.754;2022-07-23T15:58:41;30.60;93.40
3562;DHT22;1795;52.074;4.754;2022-07-23T16:01:10;30.60;93.20
3562;DHT22;1795;52.074;4.754;2022-07-23T16:03:40;30.70;93.40
3562;DHT22;1795;52.074;4.754;2022-07-23T16:06:10;30.80;93.50
3562;DHT22;1795;52.074;4.754;2022-07-23T16:08:44;30.80;93.20
3562;DHT22;1795;52.074;4.754;2022-07-23T16:11:12;30.90;93.10
3562;DHT22;1795;52.074;4.754;2022-07-23T16:13:41;30.90;93.10
3562;DHT22;1795;52.074;4.754;2022-07-23T16:16:09;30.90;92.80
3562;DHT22;1795;52.074;4.754;2022-07-23T16:18:39;31.00;92.10
3562;DHT22;1795;52.074;4.754;2022-07-23T16:21:07;31.00;92.20
3562;DHT22;1795;52.074;4.754;2022-07-23T16:23:41;31.00;92.00